This is the latest recevied weather packets stored in our database for station/object E24BD-10. If no packets are shown the sender has not sent any weather packets the latest 1 day(s).
| Time | Temp. | Humidity | Pressure | Rain* | Wind** | Luminosity | Snow |
|---|---|---|---|---|---|---|---|
| 1778093114 | 32.78° C | 59% | 996 hPa | - | - | 0 W/m² | - |
| 1778090341 | 32.78° C | 57% | 997 hPa | - | - | 0 W/m² | - |
| 1778089417 | 32.78° C | 57% | 997 hPa | - | - | 0 W/m² | - |
| 1778086643 | 32.78° C | 57% | 997 hPa | - | - | 0 W/m² | - |
| 1778077392 | 33.33° C | 55% | 997 hPa | - | - | 0 W/m² | - |
| 1778076468 | 33.33° C | 56% | 997 hPa | - | - | 0 W/m² | - |
| 1778073695 | 33.89° C | 52% | 997 hPa | - | - | 0 W/m² | - |
| 1778069073 | 34.44° C | 51% | 996 hPa | - | - | 0 W/m² | - |
| 1778067224 | 34.44° C | 51% | 996 hPa | - | - | 0 W/m² | - |
| 1778065375 | 34.44° C | 53% | 996 hPa | - | - | 0 W/m² | - |
| 1778061677 | 36.11° C | 52% | 996 hPa | - | - | 0 W/m² | - |
| 1778060753 | 36.11° C | 52% | 995 hPa | - | - | 0 W/m² | - |
| 1778056130 | 37.22° C | 51% | 995 hPa | - | - | 0 W/m² | - |
| 1778053357 | 37.78° C | 49% | 996 hPa | - | - | 0 W/m² | - |
| 1778052433 | 38.33° C | 48% | 996 hPa | - | - | 0 W/m² | - |
| 1778051508 | 38.89° C | 48% | 996 hPa | - | - | 0 W/m² | - |
| 1778050584 | 39.44° C | 47% | 996 hPa | - | - | 0 W/m² | - |
| 1778047810 | 38.89° C | 46% | 996 hPa | - | - | 0 W/m² | - |
| 1778045961 | 38.89° C | 44% | 997 hPa | - | - | 0 W/m² | - |
| 1778044112 | 38.89° C | 47% | 998 hPa | - | - | 0 W/m² | - |
| 1778042263 | 38.33° C | 48% | 998 hPa | - | - | 0 W/m² | - |
| 1778040414 | 37.78° C | 49% | 998 hPa | - | - | 0 W/m² | - |
| 1778038565 | 37.22° C | 51% | 999 hPa | - | - | 0 W/m² | - |
| 1778037640 | 36.67° C | 52% | 999 hPa | - | - | 0 W/m² | - |
| 1778036716 | 36.67° C | 52% | 999 hPa | - | - | 0 W/m² | - |
* Rain since midnight (hover to see other rain measurements)
** Current wind speed in m/s (hover to see current wind gust speed)